Thomasville, GA

11:42 PM EST on March 06, 2015 (GMT -0500)
Moultrie Municipal | Change Station
CLOSE
Current Station
Airport
Location: Moultrie,
Elevation: 295 ft
Nearby Weather Stations
Active Advisory: Frost Advisory

Elev 295 ft 31.08 °N, 83.80 °W | Updated 7 minutes ago

Clear
Clear
41 °F
Feels Like 41 °F
N
0
Wind Variable Wind from North

Today
High -- | Low -- °F
--% Chance of Precip.
Yesterday
High -- | Low -- °F
Precip. -- in
6:56 AM 6:37 PM
Full, 98% visible
Pressure 30.41 in
Visibility 10.0 miles
Clouds Clear
Dew Point 41 °F
Humidity 100%
Rainfall 0.00 in
Snow Depth Not available.
UV 0 out of 12
Pollen 8.40 out of 12
Air Quality Not available.
Flu Activity Not available.
METAR KMGR 070435Z AUTO 00000KT 10SM CLR 05/05 A3041 RMK AO2

More Conditions Fewer Conditions

Pressure 30.41 in
Visibility 10.0 miles
Clouds Clear
Dew Point 41 °F
Humidity 100%
Rainfall 0.00 in
Snow Depth Not available.
UV 0 out of 12
Pollen 8.40 out of 12
Air Quality Not available.
Flu Activity Not available.
METAR KMGR 070435Z AUTO 00000KT 10SM CLR 05/05 A3041 RMK AO2

More Conditions Fewer Conditions

10-Day Weather Forecast

Almanac

Astronomy

Mar. 06, 2015 Rise Set
Actual Time
Civil Twilight
Nautical Twilight
Astronomical Twilight
Moon
Length of Visible Light
Length of Day
Tomorrow will be .
, % of the Moon is Illuminated

Today's Extremes

State Highs State Lows

Community

WunderPhotos

Upload Photos

1,803,548 photos uploaded!

WunderBlogs® & News

Nearby

Air Quality

  Air Quality AQ Index Pollutant
Not available.

Snow Depth

Station Depth Elevation

Earthquake Activity

City Distance Mag. Time & Date
Minimum magnitude displayed is 2.5.

Coastal Water Temperatures

Place Temperature

Nearby Weather Stations

Frost Advisory
Statement as of 1:21 PM CST on March 06, 2015

... Frost advisory in effect from 5 am EST /4 am CST/ to 9 am EST
/8 am CST/ Saturday...

The National Weather Service in Tallahassee has issued a frost
advisory... which is in effect from 5 am EST /4 am CST/ to 9 am
EST /8 am CST/ Saturday.

* Temperature... 32 to 36 degrees across the northwest Panhandle
and southern Georgia.

Precautionary/preparedness actions...

A frost advisory means that frost is possible. Sensitive outdoor
plants may be killed if left uncovered.